METAR Data
IDs: Format: Raw Decoded Include TAF

Data at: 1013 UTC 18 Jan 2022

K5SM 180955Z AUTO 22009KT 10SM CLR M06/M20 A3007 RMK AO2
K5SM 180935Z AUTO 22009KT 10SM CLR M06/M20 A3008 RMK AO2
K5SM 180915Z AUTO 22009KT 10SM CLR M06/M19 A3008 RMK AO2
K5SM 180855Z AUTO 22008KT 10SM CLR M06/M19 A3009 RMK AO2
K5SM 180835Z AUTO 22010KT 10SM CLR M06/M20 A3009 RMK AO2
K5SM 180815Z AUTO 22010KT 10SM CLR M06/M20 A3009 RMK AO2
K5SM 180755Z AUTO 22010KT 10SM CLR M06/M20 A3009 RMK AO2
K5SM 180735Z AUTO 23011KT 10SM CLR M06/M21 A3009 RMK AO2
K5SM 180715Z AUTO 23011G14KT 10SM CLR M05/M21 A3010 RMK AO2
K5SM 180655Z AUTO 22009KT 10SM CLR M05/M21 A3011 RMK AO2
K5SM 180635Z AUTO 23009KT 10SM CLR M05/M21 A3011 RMK AO2
K5SM 180615Z AUTO 23009KT 10SM CLR M05/M21 A3011 RMK AO2
K5SM 180555Z AUTO 23009KT 10SM CLR M05/M21 A3012 RMK AO2
K5SM 180535Z AUTO 23008KT 10SM CLR M05/M21 A3012 RMK AO2
K5SM 180515Z AUTO 23009KT 10SM CLR M05/M21 A3013 RMK AO2
K5SM 180455Z AUTO 23008KT 10SM CLR M05/M21 A3013 RMK AO2
K5SM 180435Z AUTO 22009KT 10SM SCT110 M05/M21 A3014 RMK AO2
K5SM 180415Z AUTO 22007KT 10SM CLR M05/M21 A3014 RMK AO2
K5SM 180355Z AUTO 22008KT 10SM CLR M05/M20 A3015 RMK AO2
K5SM 180335Z AUTO 22008KT 10SM CLR M05/M20 A3015 RMK AO2
K5SM 180315Z AUTO 22009KT 10SM CLR M05/M21 A3015 RMK AO2
K5SM 180255Z AUTO 22008KT 10SM CLR M05/M21 A3015 RMK AO2
K5SM 180235Z AUTO 23009KT 10SM CLR M05/M21 A3015 RMK AO2
K5SM 180215Z AUTO 24008G14KT 10SM CLR M04/M21 A3015 RMK AO2
K5SM 180155Z AUTO 24009G14KT 10SM CLR M05/M20 A3015 RMK AO2
K5SM 180135Z AUTO 24008G15KT 10SM CLR M05/M21 A3015 RMK AO2
K5SM 180115Z AUTO 24008KT 200V270 10SM CLR M05/M22 A3015 RMK AO2
K5SM 180055Z AUTO 24010G15KT 220V300 10SM CLR M05/M22 A3015 RMK AO2
K5SM 180035Z AUTO 24010G18KT 10SM CLR M04/M23 A3015 RMK AO2
K5SM 180015Z AUTO 24009G15KT 190V250 10SM CLR M04/M22 A3015 RMK AO2
K5SM 172355Z AUTO 23009KT 10SM CLR M03/M21 A3015 RMK AO2
K5SM 172335Z AUTO 23008G15KT 10SM CLR M02/M19 A3015 RMK AO2
K5SM 172315Z AUTO 22009G14KT 10SM CLR M02/M20 A3015 RMK AO2
K5SM 172255Z AUTO 24007G14KT 10SM CLR M01/M19 A3015 RMK AO2
K5SM 172235Z AUTO 22009G15KT 180V240 10SM CLR 00/M18 A3016 RMK AO2
K5SM 172215Z AUTO 23006KT 10SM CLR 00/M20 A3016 RMK AO2
K5SM 172155Z AUTO 22006KT 10SM CLR 00/M20 A3017 RMK AO2
K5SM 172135Z AUTO 23004KT 10SM CLR 00/M20 A3017 RMK AO2
K5SM 172115Z AUTO 24006KT 10SM CLR 00/M20 A3017 RMK AO2
K5SM 172055Z AUTO 23006KT 10SM CLR 00/M20 A3017 RMK AO2
K5SM 172035Z AUTO 22005KT 10SM CLR 00/M20 A3018 RMK AO2
K5SM 172015Z AUTO 25003KT 10SM CLR 00/M19 A3018 RMK AO2
K5SM 171955Z AUTO 24005KT 10SM CLR 00/M21 A3021 RMK AO2
K5SM 171935Z AUTO 25006KT 10SM CLR 00/M21 A3020 RMK AO2
K5SM 171915Z AUTO 24004KT 10SM CLR 00/M21 A3021 RMK AO2
K5SM 171855Z AUTO 23005KT 10SM CLR 00/M21 A3022 RMK AO2
K5SM 171835Z AUTO 24004KT 10SM CLR 00/M22 A3023 RMK AO2
K5SM 171815Z AUTO 23003KT 10SM CLR 00/M23 A3024 RMK AO2
K5SM 171755Z AUTO 22003KT 10SM CLR M01/M22 A3025 RMK AO2
K5SM 171735Z AUTO 23005KT 10SM CLR M01/M23 A3025 RMK AO2
K5SM 171715Z AUTO 25006KT 10SM CLR M02/M22 A3024 RMK AO2
K5SM 171655Z AUTO 23006KT 10SM CLR M02/M23 A3024 RMK AO2
K5SM 171635Z AUTO 23007KT 10SM CLR M03/M23 A3024 RMK AO2
K5SM 171615Z AUTO 24006KT 10SM CLR M04/M23 A3024 RMK AO2
K5SM 171555Z AUTO 24007KT 10SM CLR M04/M23 A3024 RMK AO2
K5SM 171535Z AUTO 23007KT 10SM CLR M05/M23 A3024 RMK AO2
K5SM 171515Z AUTO 23008KT 10SM CLR M05/M22 A3024 RMK AO2
K5SM 171455Z AUTO 24006KT 10SM CLR M05/M23 A3023 RMK AO2
K5SM 171435Z AUTO 23008KT 10SM CLR M05/M23 A3023 RMK AO2
K5SM 171415Z AUTO 22008KT 10SM CLR M05/M23 A3023 RMK AO2
K5SM 171355Z AUTO 22007KT 10SM CLR M06/M23 A3023 RMK AO2
K5SM 171335Z AUTO 22007KT 10SM CLR M05/M23 A3023 RMK AO2
K5SM 171315Z AUTO 23007KT 10SM CLR M06/M22 A3023 RMK AO2
K5SM 171255Z AUTO 23009KT 10SM CLR M05/M22 A3023 RMK AO2
K5SM 171235Z AUTO 23009KT 10SM CLR M05/M22 A3023 RMK AO2
K5SM 171215Z AUTO 23009KT 10SM CLR M05/M23 A3023 RMK AO2
K5SM 171155Z AUTO 24009KT 190V260 10SM CLR M05/M23 A3024 RMK AO2
K5SM 171135Z AUTO 24006KT 10SM CLR M05/M23 A3024 RMK AO2
K5SM 171115Z AUTO 24008KT 10SM CLR M05/M23 A3024 RMK AO2
K5SM 171055Z AUTO 24006KT 10SM CLR M05/M23 A3025 RMK AO2
K5SM 171035Z AUTO 23007KT 10SM CLR M05/M24 A3025 RMK AO2
K5SM 171015Z AUTO 23007KT 10SM CLR M05/M24 A3026 RMK AO2
K5SM 170955Z AUTO 23007KT 10SM CLR M05/M23 A3026 RMK AO2
K5SM 170935Z AUTO 24007KT 10SM CLR M05/M25 A3026 RMK AO2
K5SM 170915Z AUTO 22006KT 10SM CLR M05/M24 A3027 RMK AO2
K5SM 170855Z AUTO 23007KT 10SM CLR M05/M23 A3027 RMK AO2
K5SM 170835Z AUTO 22008KT 10SM CLR M05/M23 A3027 RMK AO2
K5SM 170815Z AUTO 23008KT 10SM CLR M05/M23 A3027 RMK AO2
K5SM 170755Z AUTO 24007KT 10SM CLR M05/M23 A3028 RMK AO2
K5SM 170735Z AUTO 23008KT 10SM CLR M05/M22 A3028 RMK AO2
K5SM 170715Z AUTO 23007KT 10SM CLR M05/M22 A3029 RMK AO2
K5SM 170655Z AUTO 23010KT 10SM CLR M05/M21 A3029 RMK AO2
K5SM 170635Z AUTO 23009KT 10SM CLR M05/M21 A3029 RMK AO2
K5SM 170615Z AUTO 23010KT 10SM CLR M05/M21 A3029 RMK AO2
K5SM 170555Z AUTO 23009KT 10SM CLR M05/M21 A3029 RMK AO2
K5SM 170535Z AUTO 24008KT 220V280 10SM CLR M05/M21 A3029 RMK AO2
K5SM 170515Z AUTO 23009KT 10SM CLR M04/M21 A3029 RMK AO2
K5SM 170455Z AUTO 23008KT 10SM CLR M04/M22 A3029 RMK AO2
K5SM 170435Z AUTO 22007KT 10SM CLR M05/M22 A3031 RMK AO2
K5SM 170415Z AUTO 22006KT 10SM CLR M04/M22 A3031 RMK AO2
K5SM 170355Z AUTO 22006KT 10SM CLR M04/M22 A3031 RMK AO2
K5SM 170335Z AUTO 24005KT 10SM CLR M05/M24 A3031 RMK AO2
K5SM 170315Z AUTO 24006KT 10SM CLR M05/M24 A3031 RMK AO2
K5SM 170255Z AUTO 24005KT 10SM CLR M04/M23 A3031 RMK AO2
K5SM 170235Z AUTO 25006KT 10SM CLR M04/M23 A3031 RMK AO2
K5SM 170215Z AUTO 25005KT 10SM CLR M04/M23 A3031 RMK AO2
K5SM 170155Z AUTO 25004KT 10SM CLR M04/M22 A3031 RMK AO2
K5SM 170135Z AUTO 26005KT 10SM CLR M03/M25 A3031 RMK AO2
K5SM 170115Z AUTO 26005KT 10SM CLR M03/M23 A3031 RMK AO2
K5SM 170055Z AUTO 25004KT 10SM CLR M03/M22 A3031 RMK AO2
K5SM 170035Z AUTO 25005KT 10SM CLR M03/M22 A3029 RMK AO2
K5SM 170015Z AUTO 24006KT 10SM CLR M03/M21 A3029 RMK AO2
K5SM 162355Z AUTO 24006KT 10SM CLR M03/M21 A3029 RMK AO2
K5SM 162335Z AUTO 25004KT 10SM CLR M02/M21 A3028 RMK AO2
K5SM 162315Z AUTO 24006KT 10SM CLR M02/M19 A3029 RMK AO2
K5SM 162255Z AUTO 25005KT 10SM CLR M02/M22 A3030 RMK AO2
K5SM 162235Z AUTO 27005KT 10SM CLR M01/M23 A3030 RMK AO2
K5SM 162215Z AUTO 24006KT 10SM CLR M01/M24 A3030 RMK AO2